sensor_id;sensor_type;location;lat;lon;timestamp;pressure;altitude;pressure_sealevel;temperature
78961;BMP280;68362;45.970;12.646;2023-03-11T00:00:59;99317.59;;;7.89
78961;BMP280;68362;45.970;12.646;2023-03-11T00:02:01;99318.38;;;7.90
78961;BMP280;68362;45.970;12.646;2023-03-11T00:03:04;99323.16;;;7.93
78961;BMP280;68362;45.970;12.646;2023-03-11T00:04:07;99321.00;;;7.90
78961;BMP280;68362;45.970;12.646;2023-03-11T00:05:12;99320.22;;;7.89
78961;BMP280;68362;45.970;12.646;2023-03-11T00:06:14;99319.44;;;7.89
78961;BMP280;68362;45.970;12.646;2023-03-11T00:07:16;99322.06;;;7.89
78961;BMP280;68362;45.970;12.646;2023-03-11T00:08:19;99321.78;;;7.90
78961;BMP280;68362;45.970;12.646;2023-03-11T00:09:21;99325.44;;;7.89
78961;BMP280;68362;45.970;12.646;2023-03-11T00:10:29;99326.47;;;7.88
78961;BMP280;68362;45.970;12.646;2023-03-11T00:11:31;99331.69;;;7.88
78961;BMP280;68362;45.970;12.646;2023-03-11T00:12:32;99327.75;;;7.86
78961;BMP280;68362;45.970;12.646;2023-03-11T00:13:34;99324.53;;;7.84
78961;BMP280;68362;45.970;12.646;2023-03-11T00:14:37;99326.56;;;7.82
78961;BMP280;68362;45.970;12.646;2023-03-11T00:15:40;99336.81;;;7.83
78961;BMP280;68362;45.970;12.646;2023-03-11T00:16:41;99327.63;;;7.81
78961;BMP280;68362;45.970;12.646;2023-03-11T00:17:43;99331.59;;;7.83
78961;BMP280;68362;45.970;12.646;2023-03-11T00:18:49;99325.53;;;7.83
78961;BMP280;68362;45.970;12.646;2023-03-11T00:19:50;99320.59;;;7.81
78961;BMP280;68362;45.970;12.646;2023-03-11T00:20:53;99320.59;;;7.81
78961;BMP280;68362;45.970;12.646;2023-03-11T00:21:56;99319.31;;;7.84
78961;BMP280;68362;45.970;12.646;2023-03-11T00:23:00;99328.97;;;7.83
78961;BMP280;68362;45.970;12.646;2023-03-11T00:24:01;99325.34;;;7.84
78961;BMP280;68362;45.970;12.646;2023-03-11T00:25:04;99320.31;;;7.83
78961;BMP280;68362;45.970;12.646;2023-03-11T00:26:05;99309.66;;;7.84
78961;BMP280;68362;45.970;12.646;2023-03-11T00:27:07;99318.53;;;7.83
78961;BMP280;68362;45.970;12.646;2023-03-11T00:28:09;99325.53;;;7.83
78961;BMP280;68362;45.970;12.646;2023-03-11T00:29:11;99326.91;;;7.85
78961;BMP280;68362;45.970;12.646;2023-03-11T00:30:14;99313.66;;;7.87
78961;BMP280;68362;45.970;12.646;2023-03-11T00:31:16;99331.94;;;7.87
78961;BMP280;68362;45.970;12.646;2023-03-11T00:32:18;99328.53;;;7.86
78961;BMP280;68362;45.970;12.646;2023-03-11T00:33:19;99329.06;;;7.88
78961;BMP280;68362;45.970;12.646;2023-03-11T00:34:21;99320.69;;;7.86
78961;BMP280;68362;45.970;12.646;2023-03-11T00:35:26;99314.44;;;7.87
78961;BMP280;68362;45.970;12.646;2023-03-11T00:36:30;99320.44;;;7.88
78961;BMP280;68362;45.970;12.646;2023-03-11T00:37:32;99316.25;;;7.87
78961;BMP280;68362;45.970;12.646;2023-03-11T00:38:34;99312.06;;;7.86
78961;BMP280;68362;45.970;12.646;2023-03-11T00:39:35;99310.78;;;7.88
78961;BMP280;68362;45.970;12.646;2023-03-11T00:40:38;99305.81;;;7.87
78961;BMP280;68362;45.970;12.646;2023-03-11T00:41:39;99306.59;;;7.87
78961;BMP280;68362;45.970;12.646;2023-03-11T00:42:41;99307.38;;;7.88
78961;BMP280;68362;45.970;12.646;2023-03-11T00:43:42;99304.22;;;7.86
78961;BMP280;68362;45.970;12.646;2023-03-11T00:44:44;99308.09;;;7.83
78961;BMP280;68362;45.970;12.646;2023-03-11T00:45:46;99307.25;;;7.83
78961;BMP280;68362;45.970;12.646;2023-03-11T00:46:48;99301.53;;;7.81
78961;BMP280;68362;45.970;12.646;2023-03-11T00:47:50;99312.50;;;7.83
78961;BMP280;68362;45.970;12.646;2023-03-11T00:48:52;99312.97;;;7.80
78961;BMP280;68362;45.970;12.646;2023-03-11T00:49:54;99315.03;;;7.78
78961;BMP280;68362;45.970;12.646;2023-03-11T00:50:56;99309.22;;;7.75
78961;BMP280;68362;45.970;12.646;2023-03-11T00:51:58;99313.88;;;7.73
78961;BMP280;68362;45.970;12.646;2023-03-11T00:53:00;99315.97;;;7.71
78961;BMP280;68362;45.970;12.646;2023-03-11T00:54:01;99315.16;;;7.71
78961;BMP280;68362;45.970;12.646;2023-03-11T00:55:04;99309.13;;;7.70
78961;BMP280;68362;45.970;12.646;2023-03-11T00:56:06;99317.41;;;7.67
78961;BMP280;68362;45.970;12.646;2023-03-11T00:57:08;99316.88;;;7.65
78961;BMP280;68362;45.970;12.646;2023-03-11T00:58:11;99324.25;;;7.68
78961;BMP280;68362;45.970;12.646;2023-03-11T00:59:13;99322.63;;;7.67
78961;BMP280;68362;45.970;12.646;2023-03-11T01:00:16;99320.28;;;7.66
78961;BMP280;68362;45.970;12.646;2023-03-11T01:01:18;99317.91;;;7.64
78961;BMP280;68362;45.970;12.646;2023-03-11T01:02:21;99324.16;;;7.63
78961;BMP280;68362;45.970;12.646;2023-03-11T01:03:23;99327.78;;;7.62
78961;BMP280;68362;45.970;12.646;2023-03-11T01:04:24;99325.38;;;7.61
78961;BMP280;68362;45.970;12.646;2023-03-11T01:05:29;99328.78;;;7.61
78961;BMP280;68362;45.970;12.646;2023-03-11T01:06:31;99323.00;;;7.59
78961;BMP280;68362;45.970;12.646;2023-03-11T01:07:45;99328.22;;;7.59
78961;BMP280;68362;45.970;12.646;2023-03-11T01:08:47;99323.47;;;7.56
78961;BMP280;68362;45.970;12.646;2023-03-11T01:09:49;99322.44;;;7.57
78961;BMP280;68362;45.970;12.646;2023-03-11T01:10:51;99310.97;;;7.58
78961;BMP280;68362;45.970;12.646;2023-03-11T01:11:52;99323.72;;;7.55
78961;BMP280;68362;45.970;12.646;2023-03-11T01:12:54;99309.38;;;7.57
78961;BMP280;68362;45.970;12.646;2023-03-11T01:13:56;99319.50;;;7.54
78961;BMP280;68362;45.970;12.646;2023-03-11T01:14:58;99325.72;;;7.53
78961;BMP280;68362;45.970;12.646;2023-03-11T01:15:59;99326.53;;;7.53
78961;BMP280;68362;45.970;12.646;2023-03-11T01:17:01;99324.94;;;7.52
78961;BMP280;68362;45.970;12.646;2023-03-11T01:18:04;99331.19;;;7.51
78961;BMP280;68362;45.970;12.646;2023-03-11T01:19:07;99316.00;;;7.48
78961;BMP280;68362;45.970;12.646;2023-03-11T01:20:09;99318.63;;;7.48
78961;BMP280;68362;45.970;12.646;2023-03-11T01:21:11;99305.19;;;7.44
78961;BMP280;68362;45.970;12.646;2023-03-11T01:22:13;99304.41;;;7.44
78961;BMP280;68362;45.970;12.646;2023-03-11T01:23:15;99307.25;;;7.42
78961;BMP280;68362;45.970;12.646;2023-03-11T01:24:17;99311.69;;;7.42
78961;BMP280;68362;45.970;12.646;2023-03-11T01:25:21;99306.94;;;7.39
78961;BMP280;68362;45.970;12.646;2023-03-11T01:26:23;99309.75;;;7.37
78961;BMP280;68362;45.970;12.646;2023-03-11T01:27:24;99300.13;;;7.38
78961;BMP280;68362;45.970;12.646;2023-03-11T01:28:26;99298.53;;;7.37
78961;BMP280;68362;45.970;12.646;2023-03-11T01:29:28;99290.13;;;7.35
78961;BMP280;68362;45.970;12.646;2023-03-11T01:30:29;99292.16;;;7.33
78961;BMP280;68362;45.970;12.646;2023-03-11T01:31:31;99296.84;;;7.31
78961;BMP280;68362;45.970;12.646;2023-03-11T01:32:33;99299.47;;;7.31
78961;BMP280;68362;45.970;12.646;2023-03-11T01:33:35;99294.69;;;7.28
78961;BMP280;68362;45.970;12.646;2023-03-11T01:34:36;99293.06;;;7.27
78961;BMP280;68362;45.970;12.646;2023-03-11T01:35:38;99294.34;;;7.24
78961;BMP280;68362;45.970;12.646;2023-03-11T01:36:40;99296.13;;;7.23
78961;BMP280;68362;45.970;12.646;2023-03-11T01:37:42;99304.44;;;7.20
78961;BMP280;68362;45.970;12.646;2023-03-11T01:38:44;99306.25;;;7.20
78961;BMP280;68362;45.970;12.646;2023-03-11T01:39:45;99307.03;;;7.20
78961;BMP280;68362;45.970;12.646;2023-03-11T01:40:49;99291.63;;;7.19
78961;BMP280;68362;45.970;12.646;2023-03-11T01:41:51;99295.47;;;7.16
78961;BMP280;68362;45.970;12.646;2023-03-11T01:42:53;99306.13;;;7.15
78961;BMP280;68362;45.970;12.646;2023-03-11T01:43:55;99305.34;;;7.14
78961;BMP280;68362;45.970;12.646;2023-03-11T01:44:56;99301.94;;;7.14
78961;BMP280;68362;45.970;12.646;2023-03-11T01:48:04;99295.16;;;7.13
78961;BMP280;68362;45.970;12.646;2023-03-11T01:49:11;99287.53;;;7.11
78961;BMP280;68362;45.970;12.646;2023-03-11T01:50:12;99278.13;;;7.10
78961;BMP280;68362;45.970;12.646;2023-03-11T01:51:16;99273.13;;;7.09
78961;BMP280;68362;45.970;12.646;2023-03-11T01:52:19;99264.75;;;7.07
78961;BMP280;68362;45.970;12.646;2023-03-11T01:53:23;99263.94;;;7.06
78961;BMP280;68362;45.970;12.646;2023-03-11T01:54:34;99267.13;;;7.08
78961;BMP280;68362;45.970;12.646;2023-03-11T01:55:37;99272.34;;;7.08
78961;BMP280;68362;45.970;12.646;2023-03-11T01:56:40;99272.00;;;7.05
78961;BMP280;68362;45.970;12.646;2023-03-11T01:57:42;99269.16;;;7.06
78961;BMP280;68362;45.970;12.646;2023-03-11T01:58:47;99273.59;;;7.06
78961;BMP280;68362;45.970;12.646;2023-03-11T01:59:52;99272.81;;;7.05
78961;BMP280;68362;45.970;12.646;2023-03-11T02:00:58;99263.94;;;7.06
78961;BMP280;68362;45.970;12.646;2023-03-11T02:02:05;99272.00;;;7.05
78961;BMP280;68362;45.970;12.646;2023-03-11T02:03:10;99263.41;;;7.04
78961;BMP280;68362;45.970;12.646;2023-03-11T02:04:16;99256.56;;;7.03
78961;BMP280;68362;45.970;12.646;2023-03-11T02:05:20;99254.53;;;7.05
78961;BMP280;68362;45.970;12.646;2023-03-11T02:06:23;99257.41;;;7.04
78961;BMP280;68362;45.970;12.646;2023-03-11T02:07:25;99256.38;;;7.05
78961;BMP280;68362;45.970;12.646;2023-03-11T02:08:26;99254.78;;;7.04
78961;BMP280;68362;45.970;12.646;2023-03-11T02:09:30;99250.34;;;7.04
78961;BMP280;68362;45.970;12.646;2023-03-11T02:10:32;99246.72;;;7.05
78961;BMP280;68362;45.970;12.646;2023-03-11T02:11:33;99254.53;;;7.05
78961;BMP280;68362;45.970;12.646;2023-03-11T02:12:36;99260.78;;;7.04
78961;BMP280;68362;45.970;12.646;2023-03-11T02:13:39;99250.56;;;7.03
78961;BMP280;68362;45.970;12.646;2023-03-11T02:14:45;99248.19;;;7.01
78961;BMP280;68362;45.970;12.646;2023-03-11T02:15:47;99247.16;;;7.02
78961;BMP280;68362;45.970;12.646;2023-03-11T02:16:49;99248.53;;;7.05
78961;BMP280;68362;45.970;12.646;2023-03-11T02:17:51;99245.94;;;7.05
78961;BMP280;68362;45.970;12.646;2023-03-11T02:18:53;99253.97;;;7.03
78961;BMP280;68362;45.970;12.646;2023-03-11T02:21:07;99252.72;;;7.06
78961;BMP280;68362;45.970;12.646;2023-03-11T02:22:14;99245.69;;;7.06
78961;BMP280;68362;45.970;12.646;2023-03-11T02:23:17;99259.28;;;7.08
78961;BMP280;68362;45.970;12.646;2023-03-11T02:25:34;99248.84;;;7.08
78961;BMP280;68362;45.970;12.646;2023-03-11T02:26:55;99242.63;;;7.09
78961;BMP280;68362;45.970;12.646;2023-03-11T02:27:58;99238.56;;;7.13
78961;BMP280;68362;45.970;12.646;2023-03-11T02:29:01;99242.75;;;7.14
78961;BMP280;68362;45.970;12.646;2023-03-11T02:30:05;99241.97;;;7.14
78961;BMP280;68362;45.970;12.646;2023-03-11T02:31:07;99244.31;;;7.15
78961;BMP280;68362;45.970;12.646;2023-03-11T02:32:09;99240.69;;;7.16
78961;BMP280;68362;45.970;12.646;2023-03-11T02:33:13;99243.31;;;7.16
78961;BMP280;68362;45.970;12.646;2023-03-11T02:34:26;99241.03;;;7.20
78961;BMP280;68362;45.970;12.646;2023-03-11T02:35:28;99228.44;;;7.17
78961;BMP280;68362;45.970;12.646;2023-03-11T02:36:35;99235.03;;;7.19
78961;BMP280;68362;45.970;12.646;2023-03-11T02:37:43;99219.59;;;7.18
78961;BMP280;68362;45.970;12.646;2023-03-11T02:38:45;99220.63;;;7.17
78961;BMP280;68362;45.970;12.646;2023-03-11T02:39:49;99226.63;;;7.17
78961;BMP280;68362;45.970;12.646;2023-03-11T02:41:54;99235.03;;;7.19
78961;BMP280;68362;45.970;12.646;2023-03-11T02:42:59;99236.41;;;7.22
78961;BMP280;68362;45.970;12.646;2023-03-11T02:44:04;99238.22;;;7.21
78961;BMP280;68362;45.970;12.646;2023-03-11T02:45:10;99235.03;;;7.19
78961;BMP280;68362;45.970;12.646;2023-03-11T02:46:13;99235.47;;;7.16
78961;BMP280;68362;45.970;12.646;2023-03-11T02:47:15;99247.50;;;7.17
78961;BMP280;68362;45.970;12.646;2023-03-11T02:48:17;99247.50;;;7.17
78961;BMP280;68362;45.970;12.646;2023-03-11T02:49:20;99252.16;;;7.15
78961;BMP280;68362;45.970;12.646;2023-03-11T02:50:23;99253.19;;;7.14
78961;BMP280;68362;45.970;12.646;2023-03-11T02:51:25;99252.03;;;7.10
78961;BMP280;68362;45.970;12.646;2023-03-11T02:52:27;99242.63;;;7.09
78961;BMP280;68362;45.970;12.646;2023-03-11T02:53:34;99221.75;;;7.09
78961;BMP280;68362;45.970;12.646;2023-03-11T02:54:36;99221.19;;;7.07
78961;BMP280;68362;45.970;12.646;2023-03-11T02:55:38;99224.84;;;7.06
78961;BMP280;68362;45.970;12.646;2023-03-11T02:56:40;99225.06;;;7.05
78961;BMP280;68362;45.970;12.646;2023-03-11T02:57:42;99237.31;;;7.04
78961;BMP280;68362;45.970;12.646;2023-03-11T02:58:44;99237.75;;;7.01
78961;BMP280;68362;45.970;12.646;2023-03-11T02:59:46;99247.63;;;6.99
78961;BMP280;68362;45.970;12.646;2023-03-11T03:00:47;99259.06;;;6.98
78961;BMP280;68362;45.970;12.646;2023-03-11T03:01:49;99255.13;;;6.95
78961;BMP280;68362;45.970;12.646;2023-03-11T03:02:50;99255.69;;;6.97
78961;BMP280;68362;45.970;12.646;2023-03-11T03:03:52;99267.94;;;6.97
78961;BMP280;68362;45.970;12.646;2023-03-11T03:04:54;99267.94;;;6.97
78961;BMP280;68362;45.970;12.646;2023-03-11T03:05:56;99280.41;;;6.95
78961;BMP280;68362;45.970;12.646;2023-03-11T03:06:57;99277.56;;;6.96
78961;BMP280;68362;45.970;12.646;2023-03-11T03:07:59;99275.97;;;6.95
78961;BMP280;68362;45.970;12.646;2023-03-11T03:09:03;99276.19;;;6.94
78961;BMP280;68362;45.970;12.646;2023-03-11T03:10:05;99282.44;;;6.93
78961;BMP280;68362;45.970;12.646;2023-03-11T03:11:07;99280.84;;;6.92
78961;BMP280;68362;45.970;12.646;2023-03-11T03:12:09;99274.03;;;6.91
78961;BMP280;68362;45.970;12.646;2023-03-11T03:13:10;99279.25;;;6.91
78961;BMP280;68362;45.970;12.646;2023-03-11T03:14:12;99282.09;;;6.89
78961;BMP280;68362;45.970;12.646;2023-03-11T03:15:14;99272.69;;;6.88
78961;BMP280;68362;45.970;12.646;2023-03-11T03:16:16;99284.94;;;6.88
78961;BMP280;68362;45.970;12.646;2023-03-11T03:17:18;99275.53;;;6.87
78961;BMP280;68362;45.970;12.646;2023-03-11T03:18:20;99273.13;;;6.85
78961;BMP280;68362;45.970;12.646;2023-03-11T03:19:22;99278.56;;;6.84
78961;BMP280;68362;45.970;12.646;2023-03-11T03:20:23;99273.34;;;6.84
78961;BMP280;68362;45.970;12.646;2023-03-11T03:21:26;99271.31;;;6.86
78961;BMP280;68362;45.970;12.646;2023-03-11T03:22:28;99261.56;;;6.81
78961;BMP280;68362;45.970;12.646;2023-03-11T03:23:30;99262.59;;;6.80
78961;BMP280;68362;45.970;12.646;2023-03-11T03:24:35;99258.84;;;6.76
78961;BMP280;68362;45.970;12.646;2023-03-11T03:25:37;99267.44;;;6.77
78961;BMP280;68362;45.970;12.646;2023-03-11T03:26:38;99268.47;;;6.76
78961;BMP280;68362;45.970;12.646;2023-03-11T03:27:40;99262.47;;;6.75
78961;BMP280;68362;45.970;12.646;2023-03-11T03:28:42;99266.88;;;6.75
78961;BMP280;68362;45.970;12.646;2023-03-11T03:29:43;99278.31;;;6.73
78961;BMP280;68362;45.970;12.646;2023-03-11T03:30:45;99279.09;;;6.74
78961;BMP280;68362;45.970;12.646;2023-03-11T03:31:47;99266.44;;;6.78
78961;BMP280;68362;45.970;12.646;2023-03-11T03:32:48;99262.81;;;6.79
78961;BMP280;68362;45.970;12.646;2023-03-11T03:33:50;99268.59;;;6.81
78961;BMP280;68362;45.970;12.646;2023-03-11T03:34:52;99259.63;;;6.77
78961;BMP280;68362;45.970;12.646;2023-03-11T03:35:58;99266.66;;;6.76
78961;BMP280;68362;45.970;12.646;2023-03-11T03:37:00;99273.88;;;6.74
78961;BMP280;68362;45.970;12.646;2023-03-11T03:38:02;99281.94;;;6.72
78961;BMP280;68362;45.970;12.646;2023-03-11T03:39:04;99283.53;;;6.73
78961;BMP280;68362;45.970;12.646;2023-03-11T03:40:06;99283.53;;;6.73
78961;BMP280;68362;45.970;12.646;2023-03-11T03:41:09;99281.94;;;6.72
78961;BMP280;68362;45.970;12.646;2023-03-11T03:42:10;99276.72;;;6.72
78961;BMP280;68362;45.970;12.646;2023-03-11T03:43:12;99276.19;;;6.70
78961;BMP280;68362;45.970;12.646;2023-03-11T03:44:13;99276.63;;;6.67
78961;BMP280;68362;45.970;12.646;2023-03-11T03:45:15;99281.81;;;6.67
78961;BMP280;68362;45.970;12.646;2023-03-11T03:46:17;99271.63;;;6.66
78961;BMP280;68362;45.970;12.646;2023-03-11T03:47:19;99277.19;;;6.69
78961;BMP280;68362;45.970;12.646;2023-03-11T03:48:20;99276.41;;;6.69
78961;BMP280;68362;45.970;12.646;2023-03-11T03:49:22;99279.56;;;6.71
78961;BMP280;68362;45.970;12.646;2023-03-11T03:50:23;99280.59;;;6.70
78961;BMP280;68362;45.970;12.646;2023-03-11T03:51:25;99292.03;;;6.69
78961;BMP280;68362;45.970;12.646;2023-03-11T03:52:27;99294.84;;;6.67
78961;BMP280;68362;45.970;12.646;2023-03-11T03:53:29;99301.09;;;6.66
78961;BMP280;68362;45.970;12.646;2023-03-11T03:54:31;99290.66;;;6.66
78961;BMP280;68362;45.970;12.646;2023-03-11T03:55:32;99299.06;;;6.68
78961;BMP280;68362;45.970;12.646;2023-03-11T03:56:34;99296.91;;;6.65
78961;BMP280;68362;45.970;12.646;2023-03-11T03:57:35;99294.31;;;6.65
78961;BMP280;68362;45.970;12.646;2023-03-11T03:58:37;99298.69;;;6.65
78961;BMP280;68362;45.970;12.646;2023-03-11T03:59:39;99313.53;;;6.64
78961;BMP280;68362;45.970;12.646;2023-03-11T04:00:40;99312.53;;;6.65
78961;BMP280;68362;45.970;12.646;2023-03-11T04:01:42;99309.94;;;6.65
78961;BMP280;68362;45.970;12.646;2023-03-11T04:02:44;99309.13;;;6.65
78961;BMP280;68362;45.970;12.646;2023-03-11T04:03:45;99310.94;;;6.64
78961;BMP280;68362;45.970;12.646;2023-03-11T04:04:47;99310.72;;;6.66
78961;BMP280;68362;45.970;12.646;2023-03-11T04:05:49;99315.94;;;6.66
78961;BMP280;68362;45.970;12.646;2023-03-11T04:06:51;99313.34;;;6.66
78961;BMP280;68362;45.970;12.646;2023-03-11T04:07:53;99313.34;;;6.66
78961;BMP280;68362;45.970;12.646;2023-03-11T04:08:55;99303.34;;;6.63
78961;BMP280;68362;45.970;12.646;2023-03-11T04:09:56;99302.53;;;6.62
78961;BMP280;68362;45.970;12.646;2023-03-11T04:10:58;99298.94;;;6.63
78961;BMP280;68362;45.970;12.646;2023-03-11T04:12:00;99289.75;;;6.61
78961;BMP280;68362;45.970;12.646;2023-03-11T04:13:02;99294.19;;;6.60
78961;BMP280;68362;45.970;12.646;2023-03-11T04:14:04;99299.84;;;6.57
78961;BMP280;68362;45.970;12.646;2023-03-11T04:15:06;99298.22;;;6.56
78961;BMP280;68362;45.970;12.646;2023-03-11T04:16:09;99309.34;;;6.52
78961;BMP280;68362;45.970;12.646;2023-03-11T04:17:13;99307.19;;;6.48
78961;BMP280;68362;45.970;12.646;2023-03-11T04:18:15;99301.59;;;6.45
78961;BMP280;68362;45.970;12.646;2023-03-11T04:19:16;99303.66;;;6.43
78961;BMP280;68362;45.970;12.646;2023-03-11T04:20:18;99295.03;;;6.42
78961;BMP280;68362;45.970;12.646;2023-03-11T04:21:20;99297.06;;;6.40
78961;BMP280;68362;45.970;12.646;2023-03-11T04:22:22;99294.88;;;6.37
78961;BMP280;68362;45.970;12.646;2023-03-11T04:23:24;99302.72;;;6.37
78961;BMP280;68362;45.970;12.646;2023-03-11T04:24:25;99297.69;;;6.36
78961;BMP280;68362;45.970;12.646;2023-03-11T04:25:27;99306.56;;;6.35
78961;BMP280;68362;45.970;12.646;2023-03-11T04:26:29;99303.16;;;6.34
78961;BMP280;68362;45.970;12.646;2023-03-11T04:27:31;99305.19;;;6.32
78961;BMP280;68362;45.970;12.646;2023-03-11T04:28:32;99296.00;;;6.30
78961;BMP280;68362;45.970;12.646;2023-03-11T04:29:34;99291.00;;;6.28
78961;BMP280;68362;45.970;12.646;2023-03-11T04:30:37;99293.38;;;6.30
78961;BMP280;68362;45.970;12.646;2023-03-11T04:31:39;99294.59;;;6.27
78961;BMP280;68362;45.970;12.646;2023-03-11T04:32:41;99293.38;;;6.30
78961;BMP280;68362;45.970;12.646;2023-03-11T04:33:43;99303.81;;;6.30
78961;BMP280;68362;45.970;12.646;2023-03-11T04:34:45;99308.59;;;6.33
78961;BMP280;68362;45.970;12.646;2023-03-11T04:35:46;99309.41;;;6.33
78961;BMP280;68362;45.970;12.646;2023-03-11T04:36:53;99311.78;;;6.35
78961;BMP280;68362;45.970;12.646;2023-03-11T04:37:55;99317.91;;;6.40
78961;BMP280;68362;45.970;12.646;2023-03-11T04:38:57;99317.47;;;6.43
78961;BMP280;68362;45.970;12.646;2023-03-11T04:39:58;99317.25;;;6.45
78961;BMP280;68362;45.970;12.646;2023-03-11T04:41:01;99323.81;;;6.47
78961;BMP280;68362;45.970;12.646;2023-03-11T04:42:03;99327.78;;;6.50
78961;BMP280;68362;45.970;12.646;2023-03-11T04:43:05;99325.41;;;6.48
78961;BMP280;68362;45.970;12.646;2023-03-11T04:44:06;99332.00;;;6.51
78961;BMP280;68362;45.970;12.646;2023-03-11T04:45:09;99329.16;;;6.53
78961;BMP280;68362;45.970;12.646;2023-03-11T04:46:11;99329.16;;;6.53
78961;BMP280;68362;45.970;12.646;2023-03-11T04:47:13;99342.97;;;6.53
78961;BMP280;68362;45.970;12.646;2023-03-11T04:48:15;99339.13;;;6.56
78961;BMP280;68362;45.970;12.646;2023-03-11T04:49:17;99347.16;;;6.54
78961;BMP280;68362;45.970;12.646;2023-03-11T04:50:18;99337.78;;;6.53
78961;BMP280;68362;45.970;12.646;2023-03-11T04:51:20;99325.78;;;6.52
78961;BMP280;68362;45.970;12.646;2023-03-11T04:52:22;99319.97;;;6.50
78961;BMP280;68362;45.970;12.646;2023-03-11T04:53:23;99314.75;;;6.50
78961;BMP280;68362;45.970;12.646;2023-03-11T04:54:25;99309.00;;;6.48
78961;BMP280;68362;45.970;12.646;2023-03-11T04:55:27;99305.00;;;6.45
78961;BMP280;68362;45.970;12.646;2023-03-11T04:56:28;99299.00;;;6.45
78961;BMP280;68362;45.970;12.646;2023-03-11T04:57:30;99299.78;;;6.45
78961;BMP280;68362;45.970;12.646;2023-03-11T04:58:32;99301.59;;;6.45
78961;BMP280;68362;45.970;12.646;2023-03-11T04:59:33;99307.84;;;6.44
78961;BMP280;68362;45.970;12.646;2023-03-11T05:00:35;99313.59;;;6.46
78961;BMP280;68362;45.970;12.646;2023-03-11T05:01:37;99319.41;;;6.48
78961;BMP280;68362;45.970;12.646;2023-03-11T05:02:39;99323.59;;;6.49
78961;BMP280;68362;45.970;12.646;2023-03-11T05:03:41;99324.19;;;6.51
78961;BMP280;68362;45.970;12.646;2023-03-11T05:04:42;99317.16;;;6.52
78961;BMP280;68362;45.970;12.646;2023-03-11T05:05:45;99319.78;;;6.52
78961;BMP280;68362;45.970;12.646;2023-03-11T05:06:47;99325.19;;;6.50
78961;BMP280;68362;45.970;12.646;2023-03-11T05:07:51;99322.81;;;6.48
78961;BMP280;68362;45.970;12.646;2023-03-11T05:08:53;99318.81;;;6.46
78961;BMP280;68362;45.970;12.646;2023-03-11T05:09:55;99305.66;;;6.41
78961;BMP280;68362;45.970;12.646;2023-03-11T05:10:56;99298.09;;;6.39
78961;BMP280;68362;45.970;12.646;2023-03-11T05:11:58;99295.69;;;6.38
78961;BMP280;68362;45.970;12.646;2023-03-11T05:13:00;99297.69;;;6.36
78961;BMP280;68362;45.970;12.646;2023-03-11T05:14:01;99306.56;;;6.35
78961;BMP280;68362;45.970;12.646;2023-03-11T05:15:03;99313.78;;;6.33
78961;BMP280;68362;45.970;12.646;2023-03-11T05:16:05;99311.41;;;6.31
78961;BMP280;68362;45.970;12.646;2023-03-11T05:17:07;99315.41;;;6.34
78961;BMP280;68362;45.970;12.646;2023-03-11T05:18:10;99314.03;;;6.31
78961;BMP280;68362;45.970;12.646;2023-03-11T05:19:12;99322.63;;;6.32
78961;BMP280;68362;45.970;12.646;2023-03-11T05:20:32;99321.41;;;6.34
78961;BMP280;68362;45.970;12.646;2023-03-11T05:21:33;99327.84;;;6.32
78961;BMP280;68362;45.970;12.646;2023-03-11T05:22:35;99336.69;;;6.31
78961;BMP280;68362;45.970;12.646;2023-03-11T05:23:37;99343.47;;;6.32
78961;BMP280;68362;45.970;12.646;2023-03-11T05:24:39;99341.88;;;6.31
78961;BMP280;68362;45.970;12.646;2023-03-11T05:25:41;99339.28;;;6.31
78961;BMP280;68362;45.970;12.646;2023-03-11T05:26:43;99331.03;;;6.34
78961;BMP280;68362;45.970;12.646;2023-03-11T05:27:46;99315.84;;;6.31
78961;BMP280;68362;45.970;12.646;2023-03-11T05:28:48;99309.00;;;6.30
78961;BMP280;68362;45.970;12.646;2023-03-11T05:29:50;99315.03;;;6.30
78961;BMP280;68362;45.970;12.646;2023-03-11T05:30:51;99309.59;;;6.32
78961;BMP280;68362;45.970;12.646;2023-03-11T05:31:53;99304.81;;;6.29
78961;BMP280;68362;45.970;12.646;2023-03-11T05:32:55;99315.25;;;6.29
78961;BMP280;68362;45.970;12.646;2023-03-11T05:33:57;99326.47;;;6.29
78961;BMP280;68362;45.970;12.646;2023-03-11T05:34:58;99326.25;;;6.31
78961;BMP280;68362;45.970;12.646;2023-03-11T05:36:05;99347.88;;;6.31
78961;BMP280;68362;45.970;12.646;2023-03-11T05:37:07;99348.09;;;6.30
78961;BMP280;68362;45.970;12.646;2023-03-11T05:38:09;99350.69;;;6.30
78961;BMP280;68362;45.970;12.646;2023-03-11T05:39:11;99355.91;;;6.30
78961;BMP280;68362;45.970;12.646;2023-03-11T05:40:12;99357.50;;;6.31
78961;BMP280;68362;45.970;12.646;2023-03-11T05:41:14;99362.72;;;6.31
78961;BMP280;68362;45.970;12.646;2023-03-11T05:42:16;99356.72;;;6.30
78961;BMP280;68362;45.970;12.646;2023-03-11T05:43:18;99361.09;;;6.30
78961;BMP280;68362;45.970;12.646;2023-03-11T05:44:20;99360.13;;;6.31
78961;BMP280;68362;45.970;12.646;2023-03-11T05:45:22;99360.13;;;6.31
78961;BMP280;68362;45.970;12.646;2023-03-11T05:46:24;99357.50;;;6.31
78961;BMP280;68362;45.970;12.646;2023-03-11T05:47:26;99350.69;;;6.30
78961;BMP280;68362;45.970;12.646;2023-03-11T05:48:27;99352.31;;;6.31
78961;BMP280;68362;45.970;12.646;2023-03-11T05:49:29;99346.88;;;6.32
78961;BMP280;68362;45.970;12.646;2023-03-11T05:50:31;99345.63;;;6.35
78961;BMP280;68362;45.970;12.646;2023-03-11T05:51:32;99332.63;;;6.35
78961;BMP280;68362;45.970;12.646;2023-03-11T05:52:34;99346.75;;;6.39
78961;BMP280;68362;45.970;12.646;2023-03-11T05:53:36;99343.75;;;6.42
78961;BMP280;68362;45.970;12.646;2023-03-11T05:54:38;99344.53;;;6.42
78961;BMP280;68362;45.970;12.646;2023-03-11T05:55:39;99357.34;;;6.44
78961;BMP280;68362;45.970;12.646;2023-03-11T05:56:43;99350.09;;;6.46
78961;BMP280;68362;45.970;12.646;2023-03-11T05:57:45;99354.06;;;6.48
78961;BMP280;68362;45.970;12.646;2023-03-11T05:58:46;99354.28;;;6.47
78961;BMP280;68362;45.970;12.646;2023-03-11T05:59:48;99358.06;;;6.51
78961;BMP280;68362;45.970;12.646;2023-03-11T06:00:50;99357.81;;;6.53
78961;BMP280;68362;45.970;12.646;2023-03-11T06:01:51;99348.19;;;6.53
78961;BMP280;68362;45.970;12.646;2023-03-11T06:02:53;99332.56;;;6.53
78961;BMP280;68362;45.970;12.646;2023-03-11T06:03:55;99329.97;;;6.53
78961;BMP280;68362;45.970;12.646;2023-03-11T06:04:56;99326.09;;;6.56
78961;BMP280;68362;45.970;12.646;2023-03-11T06:05:58;99332.09;;;6.56